sensor_id;sensor_type;location;lat;lon;timestamp;P1;durP1;ratioP1;P2;durP2;ratioP2
75209;SDS011;63796;53.136;14.882;2022-10-31T00:00:57;36.30;;;15.35;;
75209;SDS011;63796;53.136;14.882;2022-10-31T00:03:26;24.98;;;11.00;;
75209;SDS011;63796;53.136;14.882;2022-10-31T00:05:53;21.23;;;10.00;;
75209;SDS011;63796;53.136;14.882;2022-10-31T00:08:20;15.85;;;9.20;;
75209;SDS011;63796;53.136;14.882;2022-10-31T00:10:47;19.00;;;9.20;;
75209;SDS011;63796;53.136;14.882;2022-10-31T00:13:14;15.03;;;8.98;;
75209;SDS011;63796;53.136;14.882;2022-10-31T00:15:41;15.10;;;8.73;;
75209;SDS011;63796;53.136;14.882;2022-10-31T00:18:09;16.17;;;8.70;;
75209;SDS011;63796;53.136;14.882;2022-10-31T00:20:37;17.35;;;9.20;;
75209;SDS011;63796;53.136;14.882;2022-10-31T00:23:05;16.73;;;9.05;;
75209;SDS011;63796;53.136;14.882;2022-10-31T00:25:36;18.00;;;10.13;;
75209;SDS011;63796;53.136;14.882;2022-10-31T00:28:06;19.57;;;9.85;;
75209;SDS011;63796;53.136;14.882;2022-10-31T00:30:35;18.03;;;9.00;;
75209;SDS011;63796;53.136;14.882;2022-10-31T00:33:03;18.35;;;9.10;;
75209;SDS011;63796;53.136;14.882;2022-10-31T00:35:31;18.42;;;10.23;;
75209;SDS011;63796;53.136;14.882;2022-10-31T00:37:58;17.10;;;9.70;;
75209;SDS011;63796;53.136;14.882;2022-10-31T00:40:25;19.30;;;10.72;;
75209;SDS011;63796;53.136;14.882;2022-10-31T00:42:52;19.73;;;10.17;;
75209;SDS011;63796;53.136;14.882;2022-10-31T00:45:18;23.38;;;10.55;;
75209;SDS011;63796;53.136;14.882;2022-10-31T00:47:45;22.58;;;10.95;;
75209;SDS011;63796;53.136;14.882;2022-10-31T00:50:12;15.83;;;9.93;;
75209;SDS011;63796;53.136;14.882;2022-10-31T00:52:39;16.32;;;10.08;;
75209;SDS011;63796;53.136;14.882;2022-10-31T00:55:06;16.30;;;9.33;;
75209;SDS011;63796;53.136;14.882;2022-10-31T00:57:33;15.20;;;9.43;;
75209;SDS011;63796;53.136;14.882;2022-10-31T01:00:00;19.37;;;10.90;;
75209;SDS011;63796;53.136;14.882;2022-10-31T01:02:27;17.40;;;9.35;;
75209;SDS011;63796;53.136;14.882;2022-10-31T01:04:54;14.75;;;8.95;;
75209;SDS011;63796;53.136;14.882;2022-10-31T01:07:21;16.03;;;8.90;;
75209;SDS011;63796;53.136;14.882;2022-10-31T01:09:48;17.67;;;8.63;;
75209;SDS011;63796;53.136;14.882;2022-10-31T01:12:15;17.73;;;9.30;;
75209;SDS011;63796;53.136;14.882;2022-10-31T01:14:44;15.58;;;8.55;;
75209;SDS011;63796;53.136;14.882;2022-10-31T01:17:12;22.70;;;9.33;;
75209;SDS011;63796;53.136;14.882;2022-10-31T01:19:39;13.47;;;8.80;;
75209;SDS011;63796;53.136;14.882;2022-10-31T01:22:07;16.27;;;8.70;;
75209;SDS011;63796;53.136;14.882;2022-10-31T01:24:33;15.43;;;8.75;;
75209;SDS011;63796;53.136;14.882;2022-10-31T01:27:00;16.00;;;9.35;;
75209;SDS011;63796;53.136;14.882;2022-10-31T01:29:27;17.77;;;9.38;;
75209;SDS011;63796;53.136;14.882;2022-10-31T01:31:54;12.13;;;9.07;;
75209;SDS011;63796;53.136;14.882;2022-10-31T01:34:21;15.85;;;9.05;;
75209;SDS011;63796;53.136;14.882;2022-10-31T01:36:48;16.02;;;9.48;;
75209;SDS011;63796;53.136;14.882;2022-10-31T01:39:17;17.27;;;9.65;;
75209;SDS011;63796;53.136;14.882;2022-10-31T01:41:47;14.25;;;9.38;;
75209;SDS011;63796;53.136;14.882;2022-10-31T01:49:55;16.37;;;9.78;;
75209;SDS011;63796;53.136;14.882;2022-10-31T01:52:26;17.20;;;10.15;;
75209;SDS011;63796;53.136;14.882;2022-10-31T01:57:29;14.13;;;9.37;;
75209;SDS011;63796;53.136;14.882;2022-10-31T01:59:59;17.25;;;9.75;;
75209;SDS011;63796;53.136;14.882;2022-10-31T02:02:30;14.60;;;9.90;;
75209;SDS011;63796;53.136;14.882;2022-10-31T02:04:58;19.92;;;11.10;;
75209;SDS011;63796;53.136;14.882;2022-10-31T02:07:31;15.80;;;10.40;;
75209;SDS011;63796;53.136;14.882;2022-10-31T02:10:02;16.23;;;10.17;;
75209;SDS011;63796;53.136;14.882;2022-10-31T02:12:30;14.50;;;10.70;;
75209;SDS011;63796;53.136;14.882;2022-10-31T02:15:01;16.60;;;10.30;;
75209;SDS011;63796;53.136;14.882;2022-10-31T02:17:30;16.32;;;10.23;;
75209;SDS011;63796;53.136;14.882;2022-10-31T02:20:05;14.87;;;9.00;;
75209;SDS011;63796;53.136;14.882;2022-10-31T02:22:57;16.20;;;10.43;;
75209;SDS011;63796;53.136;14.882;2022-10-31T02:29:03;14.05;;;9.08;;
75209;SDS011;63796;53.136;14.882;2022-10-31T02:34:24;13.22;;;8.68;;
75209;SDS011;63796;53.136;14.882;2022-10-31T02:40:04;10.90;;;7.10;;
75209;SDS011;63796;53.136;14.882;2022-10-31T02:42:46;14.15;;;7.50;;
75209;SDS011;63796;53.136;14.882;2022-10-31T02:45:50;12.95;;;8.18;;
75209;SDS011;63796;53.136;14.882;2022-10-31T02:48:24;15.23;;;8.90;;
75209;SDS011;63796;53.136;14.882;2022-10-31T02:50:56;17.83;;;9.07;;
75209;SDS011;63796;53.136;14.882;2022-10-31T02:53:26;21.77;;;9.83;;
75209;SDS011;63796;53.136;14.882;2022-10-31T02:56:04;15.90;;;9.08;;
75209;SDS011;63796;53.136;14.882;2022-10-31T02:58:38;19.07;;;8.43;;
75209;SDS011;63796;53.136;14.882;2022-10-31T03:01:24;15.45;;;7.78;;
75209;SDS011;63796;53.136;14.882;2022-10-31T03:09:52;19.55;;;9.40;;
75209;SDS011;63796;53.136;14.882;2022-10-31T03:12:27;17.87;;;8.85;;
75209;SDS011;63796;53.136;14.882;2022-10-31T03:15:13;13.10;;;8.80;;
75209;SDS011;63796;53.136;14.882;2022-10-31T03:18:09;12.83;;;8.40;;
75209;SDS011;63796;53.136;14.882;2022-10-31T03:20:38;14.18;;;8.40;;
75209;SDS011;63796;53.136;14.882;2022-10-31T03:23:10;12.63;;;8.60;;
75209;SDS011;63796;53.136;14.882;2022-10-31T03:25:44;13.00;;;8.78;;
75209;SDS011;63796;53.136;14.882;2022-10-31T03:28:13;14.40;;;9.03;;
75209;SDS011;63796;53.136;14.882;2022-10-31T03:30:45;13.07;;;8.70;;
75209;SDS011;63796;53.136;14.882;2022-10-31T03:33:17;15.80;;;10.00;;
75209;SDS011;63796;53.136;14.882;2022-10-31T03:35:51;17.90;;;9.63;;
75209;SDS011;63796;53.136;14.882;2022-10-31T03:38:21;12.95;;;8.95;;
75209;SDS011;63796;53.136;14.882;2022-10-31T03:40:49;16.35;;;8.98;;
75209;SDS011;63796;53.136;14.882;2022-10-31T03:43:20;14.17;;;9.00;;
75209;SDS011;63796;53.136;14.882;2022-10-31T03:45:54;14.13;;;8.55;;
75209;SDS011;63796;53.136;14.882;2022-10-31T03:48:22;11.45;;;7.95;;
75209;SDS011;63796;53.136;14.882;2022-10-31T03:53:36;17.17;;;8.10;;
75209;SDS011;63796;53.136;14.882;2022-10-31T03:56:09;14.40;;;8.83;;
75209;SDS011;63796;53.136;14.882;2022-10-31T03:58:48;15.78;;;9.63;;
75209;SDS011;63796;53.136;14.882;2022-10-31T04:01:35;25.95;;;11.85;;
75209;SDS011;63796;53.136;14.882;2022-10-31T04:04:06;17.55;;;9.05;;
75209;SDS011;63796;53.136;14.882;2022-10-31T04:06:36;16.87;;;8.08;;
75209;SDS011;63796;53.136;14.882;2022-10-31T04:09:06;14.90;;;8.33;;
75209;SDS011;63796;53.136;14.882;2022-10-31T04:11:36;13.20;;;7.25;;
75209;SDS011;63796;53.136;14.882;2022-10-31T04:14:08;17.15;;;7.92;;
75209;SDS011;63796;53.136;14.882;2022-10-31T04:16:41;12.25;;;8.93;;
75209;SDS011;63796;53.136;14.882;2022-10-31T04:19:10;14.45;;;9.05;;
75209;SDS011;63796;53.136;14.882;2022-10-31T04:21:38;13.03;;;8.97;;
75209;SDS011;63796;53.136;14.882;2022-10-31T04:24:05;13.03;;;8.83;;
75209;SDS011;63796;53.136;14.882;2022-10-31T04:26:32;14.73;;;9.38;;
75209;SDS011;63796;53.136;14.882;2022-10-31T04:28:59;11.03;;;7.45;;
75209;SDS011;63796;53.136;14.882;2022-10-31T04:31:26;14.85;;;8.63;;
75209;SDS011;63796;53.136;14.882;2022-10-31T04:33:53;16.90;;;7.90;;
75209;SDS011;63796;53.136;14.882;2022-10-31T04:36:20;14.07;;;8.15;;
75209;SDS011;63796;53.136;14.882;2022-10-31T04:38:47;12.35;;;7.75;;
75209;SDS011;63796;53.136;14.882;2022-10-31T04:41:14;9.18;;;7.28;;
75209;SDS011;63796;53.136;14.882;2022-10-31T04:43:41;12.88;;;8.25;;
75209;SDS011;63796;53.136;14.882;2022-10-31T04:46:07;16.57;;;7.97;;
75209;SDS011;63796;53.136;14.882;2022-10-31T04:48:34;12.53;;;7.83;;
75209;SDS011;63796;53.136;14.882;2022-10-31T04:51:01;14.23;;;8.13;;
75209;SDS011;63796;53.136;14.882;2022-10-31T04:53:29;10.75;;;7.12;;
75209;SDS011;63796;53.136;14.882;2022-10-31T04:55:59;13.53;;;8.08;;
75209;SDS011;63796;53.136;14.882;2022-10-31T04:58:27;20.00;;;9.60;;
75209;SDS011;63796;53.136;14.882;2022-10-31T05:00:56;16.20;;;8.85;;
75209;SDS011;63796;53.136;14.882;2022-10-31T05:03:23;12.25;;;8.63;;
75209;SDS011;63796;53.136;14.882;2022-10-31T05:05:49;16.70;;;8.78;;
75209;SDS011;63796;53.136;14.882;2022-10-31T05:08:16;12.50;;;9.03;;
75209;SDS011;63796;53.136;14.882;2022-10-31T05:10:44;13.40;;;8.47;;
75209;SDS011;63796;53.136;14.882;2022-10-31T05:13:10;13.13;;;8.10;;
75209;SDS011;63796;53.136;14.882;2022-10-31T05:15:38;10.48;;;7.70;;
75209;SDS011;63796;53.136;14.882;2022-10-31T05:18:05;17.20;;;8.35;;
75209;SDS011;63796;53.136;14.882;2022-10-31T05:20:32;14.68;;;8.65;;
75209;SDS011;63796;53.136;14.882;2022-10-31T05:22:59;12.87;;;7.73;;
75209;SDS011;63796;53.136;14.882;2022-10-31T05:25:27;12.90;;;8.75;;
75209;SDS011;63796;53.136;14.882;2022-10-31T05:27:55;14.58;;;8.55;;
75209;SDS011;63796;53.136;14.882;2022-10-31T05:30:27;16.32;;;9.08;;
75209;SDS011;63796;53.136;14.882;2022-10-31T05:32:56;14.68;;;8.38;;
75209;SDS011;63796;53.136;14.882;2022-10-31T05:35:25;20.63;;;10.70;;
75209;SDS011;63796;53.136;14.882;2022-10-31T05:37:55;18.67;;;10.28;;
75209;SDS011;63796;53.136;14.882;2022-10-31T05:40:23;21.85;;;11.03;;
75209;SDS011;63796;53.136;14.882;2022-10-31T05:42:52;17.82;;;8.58;;
75209;SDS011;63796;53.136;14.882;2022-10-31T05:45:21;20.20;;;9.15;;
75209;SDS011;63796;53.136;14.882;2022-10-31T05:47:52;18.53;;;8.80;;
75209;SDS011;63796;53.136;14.882;2022-10-31T05:50:22;17.73;;;9.48;;
75209;SDS011;63796;53.136;14.882;2022-10-31T05:52:54;24.07;;;11.12;;
75209;SDS011;63796;53.136;14.882;2022-10-31T05:55:27;15.93;;;9.55;;
75209;SDS011;63796;53.136;14.882;2022-10-31T05:57:55;17.70;;;10.58;;
75209;SDS011;63796;53.136;14.882;2022-10-31T06:00:23;21.03;;;9.30;;
75209;SDS011;63796;53.136;14.882;2022-10-31T06:03:01;15.05;;;8.85;;
75209;SDS011;63796;53.136;14.882;2022-10-31T06:05:33;17.02;;;8.00;;
75209;SDS011;63796;53.136;14.882;2022-10-31T06:08:01;19.70;;;8.75;;
75209;SDS011;63796;53.136;14.882;2022-10-31T06:10:28;15.25;;;8.05;;
75209;SDS011;63796;53.136;14.882;2022-10-31T06:12:57;28.80;;;11.07;;
75209;SDS011;63796;53.136;14.882;2022-10-31T06:15:24;21.17;;;9.08;;
75209;SDS011;63796;53.136;14.882;2022-10-31T06:18:02;15.83;;;8.93;;
75209;SDS011;63796;53.136;14.882;2022-10-31T06:20:31;13.25;;;8.60;;
75209;SDS011;63796;53.136;14.882;2022-10-31T06:22:59;13.90;;;9.10;;
75209;SDS011;63796;53.136;14.882;2022-10-31T06:25:27;18.97;;;8.97;;
75209;SDS011;63796;53.136;14.882;2022-10-31T06:27:54;13.58;;;8.05;;
75209;SDS011;63796;53.136;14.882;2022-10-31T06:30:22;13.98;;;8.38;;
75209;SDS011;63796;53.136;14.882;2022-10-31T06:32:49;16.42;;;8.23;;
75209;SDS011;63796;53.136;14.882;2022-10-31T06:35:16;17.45;;;8.63;;
75209;SDS011;63796;53.136;14.882;2022-10-31T06:37:50;14.20;;;8.50;;
75209;SDS011;63796;53.136;14.882;2022-10-31T06:40:19;11.68;;;8.55;;
75209;SDS011;63796;53.136;14.882;2022-10-31T06:42:46;15.68;;;7.67;;
75209;SDS011;63796;53.136;14.882;2022-10-31T06:45:13;13.68;;;8.58;;
75209;SDS011;63796;53.136;14.882;2022-10-31T06:47:40;21.93;;;9.83;;
75209;SDS011;63796;53.136;14.882;2022-10-31T06:50:07;16.90;;;9.60;;
75209;SDS011;63796;53.136;14.882;2022-10-31T06:52:34;17.10;;;8.43;;
75209;SDS011;63796;53.136;14.882;2022-10-31T06:55:01;27.07;;;8.85;;
75209;SDS011;63796;53.136;14.882;2022-10-31T06:57:28;16.23;;;8.40;;
75209;SDS011;63796;53.136;14.882;2022-10-31T06:59:57;19.40;;;8.98;;
75209;SDS011;63796;53.136;14.882;2022-10-31T07:02:24;14.63;;;8.20;;
75209;SDS011;63796;53.136;14.882;2022-10-31T07:04:51;15.70;;;8.55;;
75209;SDS011;63796;53.136;14.882;2022-10-31T07:07:18;13.65;;;9.23;;
75209;SDS011;63796;53.136;14.882;2022-10-31T07:09:47;13.20;;;8.10;;
75209;SDS011;63796;53.136;14.882;2022-10-31T07:12:15;15.00;;;9.30;;
75209;SDS011;63796;53.136;14.882;2022-10-31T07:14:44;14.83;;;9.30;;
75209;SDS011;63796;53.136;14.882;2022-10-31T07:17:12;18.40;;;9.63;;
75209;SDS011;63796;53.136;14.882;2022-10-31T07:19:39;15.15;;;9.23;;
75209;SDS011;63796;53.136;14.882;2022-10-31T08:36:25;19.50;;;11.22;;
75209;SDS011;63796;53.136;14.882;2022-10-31T08:38:53;21.90;;;11.57;;
75209;SDS011;63796;53.136;14.882;2022-10-31T08:41:20;16.20;;;10.10;;
75209;SDS011;63796;53.136;14.882;2022-10-31T08:43:47;18.13;;;10.33;;
75209;SDS011;63796;53.136;14.882;2022-10-31T08:46:14;16.93;;;11.10;;
75209;SDS011;63796;53.136;14.882;2022-10-31T08:48:41;17.02;;;10.78;;
75209;SDS011;63796;53.136;14.882;2022-10-31T08:51:09;19.37;;;10.28;;
75209;SDS011;63796;53.136;14.882;2022-10-31T08:53:36;17.55;;;11.12;;
75209;SDS011;63796;53.136;14.882;2022-10-31T08:56:03;18.33;;;11.40;;
75209;SDS011;63796;53.136;14.882;2022-10-31T08:58:30;16.48;;;11.80;;
75209;SDS011;63796;53.136;14.882;2022-10-31T09:00:58;20.37;;;12.10;;
75209;SDS011;63796;53.136;14.882;2022-10-31T09:03:28;16.90;;;11.38;;
75209;SDS011;63796;53.136;14.882;2022-10-31T09:05:58;22.77;;;11.50;;
75209;SDS011;63796;53.136;14.882;2022-10-31T09:08:29;17.50;;;10.87;;
75209;SDS011;63796;53.136;14.882;2022-10-31T09:10:58;14.95;;;10.82;;
75209;SDS011;63796;53.136;14.882;2022-10-31T09:13:25;20.23;;;12.28;;
75209;SDS011;63796;53.136;14.882;2022-10-31T09:15:52;19.15;;;11.22;;
75209;SDS011;63796;53.136;14.882;2022-10-31T09:18:20;17.70;;;11.00;;
75209;SDS011;63796;53.136;14.882;2022-10-31T09:20:49;20.23;;;10.93;;
75209;SDS011;63796;53.136;14.882;2022-10-31T09:23:17;20.48;;;10.65;;
75209;SDS011;63796;53.136;14.882;2022-10-31T09:25:47;22.93;;;11.38;;
75209;SDS011;63796;53.136;14.882;2022-10-31T09:28:17;22.17;;;11.95;;
75209;SDS011;63796;53.136;14.882;2022-10-31T09:30:48;17.42;;;11.53;;
75209;SDS011;63796;53.136;14.882;2022-10-31T09:33:18;17.33;;;10.97;;
75209;SDS011;63796;53.136;14.882;2022-10-31T09:35:45;17.82;;;10.98;;
75209;SDS011;63796;53.136;14.882;2022-10-31T09:38:13;19.02;;;11.88;;
75209;SDS011;63796;53.136;14.882;2022-10-31T09:40:45;17.73;;;10.75;;
75209;SDS011;63796;53.136;14.882;2022-10-31T09:49:19;18.00;;;11.08;;
75209;SDS011;63796;53.136;14.882;2022-10-31T09:52:26;19.75;;;11.15;;
75209;SDS011;63796;53.136;14.882;2022-10-31T09:57:40;21.27;;;12.05;;
75209;SDS011;63796;53.136;14.882;2022-10-31T10:00:16;20.30;;;11.23;;
75209;SDS011;63796;53.136;14.882;2022-10-31T10:03:46;18.82;;;10.55;;
75209;SDS011;63796;53.136;14.882;2022-10-31T10:05:34;15.78;;;11.48;;
75209;SDS011;63796;53.136;14.882;2022-10-31T10:08:21;21.15;;;11.85;;
75209;SDS011;63796;53.136;14.882;2022-10-31T10:10:57;22.05;;;12.47;;
75209;SDS011;63796;53.136;14.882;2022-10-31T10:13:44;21.63;;;12.07;;
75209;SDS011;63796;53.136;14.882;2022-10-31T10:16:58;17.82;;;11.15;;
75209;SDS011;63796;53.136;14.882;2022-10-31T10:22:09;23.15;;;11.28;;
75209;SDS011;63796;53.136;14.882;2022-10-31T10:33:14;19.07;;;11.57;;
75209;SDS011;63796;53.136;14.882;2022-10-31T10:36:14;18.23;;;10.63;;
75209;SDS011;63796;53.136;14.882;2022-10-31T10:41:27;19.57;;;11.33;;
75209;SDS011;63796;53.136;14.882;2022-10-31T10:43:57;19.52;;;11.55;;
75209;SDS011;63796;53.136;14.882;2022-10-31T10:52:25;29.18;;;12.07;;
75209;SDS011;63796;53.136;14.882;2022-10-31T11:00:30;16.73;;;10.68;;
75209;SDS011;63796;53.136;14.882;2022-10-31T11:03:09;20.10;;;11.30;;
75209;SDS011;63796;53.136;14.882;2022-10-31T11:05:55;19.55;;;11.50;;
75209;SDS011;63796;53.136;14.882;2022-10-31T11:08:28;18.57;;;12.10;;
75209;SDS011;63796;53.136;14.882;2022-10-31T11:11:19;17.32;;;11.35;;
75209;SDS011;63796;53.136;14.882;2022-10-31T11:13:58;18.65;;;12.30;;
75209;SDS011;63796;53.136;14.882;2022-10-31T11:16:35;19.52;;;10.63;;
75209;SDS011;63796;53.136;14.882;2022-10-31T11:19:07;17.52;;;11.05;;
75209;SDS011;63796;53.136;14.882;2022-10-31T11:21:52;37.60;;;20.17;;
75209;SDS011;63796;53.136;14.882;2022-10-31T11:27:03;22.65;;;11.97;;
75209;SDS011;63796;53.136;14.882;2022-10-31T11:29:43;19.65;;;10.65;;
75209;SDS011;63796;53.136;14.882;2022-10-31T11:32:20;17.48;;;11.10;;
75209;SDS011;63796;53.136;14.882;2022-10-31T11:34:53;19.23;;;11.13;;
75209;SDS011;63796;53.136;14.882;2022-10-31T11:37:28;19.35;;;11.18;;
75209;SDS011;63796;53.136;14.882;2022-10-31T11:40:03;20.48;;;12.00;;
75209;SDS011;63796;53.136;14.882;2022-10-31T11:42:36;17.98;;;11.45;;
75209;SDS011;63796;53.136;14.882;2022-10-31T11:45:26;14.90;;;11.15;;
75209;SDS011;63796;53.136;14.882;2022-10-31T11:47:53;17.63;;;10.13;;
75209;SDS011;63796;53.136;14.882;2022-10-31T11:50:24;20.68;;;11.28;;
75209;SDS011;63796;53.136;14.882;2022-10-31T11:52:55;16.25;;;11.35;;
75209;SDS011;63796;53.136;14.882;2022-10-31T11:58:00;16.93;;;10.20;;
75209;SDS011;63796;53.136;14.882;2022-10-31T12:00:36;24.50;;;12.00;;
75209;SDS011;63796;53.136;14.882;2022-10-31T12:05:44;20.92;;;11.18;;
75209;SDS011;63796;53.136;14.882;2022-10-31T12:08:15;17.40;;;10.48;;
75209;SDS011;63796;53.136;14.882;2022-10-31T12:16:39;36.33;;;22.87;;
75209;SDS011;63796;53.136;14.882;2022-10-31T12:19:21;29.65;;;16.60;;
75209;SDS011;63796;53.136;14.882;2022-10-31T12:25:16;20.30;;;11.10;;
75209;SDS011;63796;53.136;14.882;2022-10-31T12:28:03;17.40;;;9.87;;
75209;SDS011;63796;53.136;14.882;2022-10-31T12:47:31;16.70;;;10.20;;
75209;SDS011;63796;53.136;14.882;2022-10-31T12:59:16;19.80;;;10.50;;
75209;SDS011;63796;53.136;14.882;2022-10-31T13:02:04;20.95;;;10.72;;
75209;SDS011;63796;53.136;14.882;2022-10-31T13:04:51;21.75;;;9.85;;
75209;SDS011;63796;53.136;14.882;2022-10-31T13:07:33;19.82;;;9.83;;
75209;SDS011;63796;53.136;14.882;2022-10-31T13:13:12;18.17;;;10.13;;
75209;SDS011;63796;53.136;14.882;2022-10-31T13:15:56;22.35;;;11.38;;
75209;SDS011;63796;53.136;14.882;2022-10-31T13:18:29;22.75;;;10.90;;
75209;SDS011;63796;53.136;14.882;2022-10-31T13:21:29;19.23;;;10.85;;
75209;SDS011;63796;53.136;14.882;2022-10-31T13:24:07;25.50;;;12.13;;
75209;SDS011;63796;53.136;14.882;2022-10-31T13:26:41;20.77;;;11.33;;
75209;SDS011;63796;53.136;14.882;2022-10-31T13:31:50;18.73;;;9.80;;
75209;SDS011;63796;53.136;14.882;2022-10-31T13:37:13;18.30;;;9.60;;
75209;SDS011;63796;53.136;14.882;2022-10-31T13:40:12;20.25;;;9.55;;
75209;SDS011;63796;53.136;14.882;2022-10-31T13:46:01;35.28;;;17.17;;
75209;SDS011;63796;53.136;14.882;2022-10-31T13:51:06;21.67;;;10.67;;
75209;SDS011;63796;53.136;14.882;2022-10-31T13:53:55;21.07;;;10.82;;
75209;SDS011;63796;53.136;14.882;2022-10-31T13:56:21;19.50;;;10.13;;
75209;SDS011;63796;53.136;14.882;2022-10-31T14:04:28;23.90;;;10.77;;
75209;SDS011;63796;53.136;14.882;2022-10-31T14:07:18;18.70;;;9.73;;
75209;SDS011;63796;53.136;14.882;2022-10-31T14:12:44;18.77;;;11.65;;
75209;SDS011;63796;53.136;14.882;2022-10-31T14:17:51;20.70;;;10.03;;
75209;SDS011;63796;53.136;14.882;2022-10-31T14:26:07;20.60;;;11.73;;
75209;SDS011;63796;53.136;14.882;2022-10-31T14:28:54;24.45;;;11.88;;
75209;SDS011;63796;53.136;14.882;2022-10-31T14:31:44;18.73;;;11.93;;
75209;SDS011;63796;53.136;14.882;2022-10-31T14:34:24;23.80;;;11.78;;
75209;SDS011;63796;53.136;14.882;2022-10-31T14:37:05;24.40;;;12.18;;
75209;SDS011;63796;53.136;14.882;2022-10-31T14:45:53;19.57;;;10.90;;
75209;SDS011;63796;53.136;14.882;2022-10-31T14:51:47;21.33;;;11.18;;
75209;SDS011;63796;53.136;14.882;2022-10-31T14:54:15;21.25;;;11.18;;
75209;SDS011;63796;53.136;14.882;2022-10-31T14:57:02;20.32;;;11.40;;
75209;SDS011;63796;53.136;14.882;2022-10-31T14:59:31;23.17;;;11.57;;
75209;SDS011;63796;53.136;14.882;2022-10-31T15:02:08;21.05;;;9.98;;
75209;SDS011;63796;53.136;14.882;2022-10-31T15:04:43;30.72;;;12.85;;
75209;SDS011;63796;53.136;14.882;2022-10-31T15:07:20;28.40;;;13.18;;
75209;SDS011;63796;53.136;14.882;2022-10-31T15:09:55;38.95;;;15.35;;
75209;SDS011;63796;53.136;14.882;2022-10-31T15:12:33;32.90;;;13.27;;
75209;SDS011;63796;53.136;14.882;2022-10-31T15:17:55;32.85;;;12.88;;
75209;SDS011;63796;53.136;14.882;2022-10-31T15:20:26;27.60;;;12.53;;
75209;SDS011;63796;53.136;14.882;2022-10-31T15:22:56;22.15;;;12.40;;
75209;SDS011;63796;53.136;14.882;2022-10-31T15:25:30;36.13;;;17.73;;
75209;SDS011;63796;53.136;14.882;2022-10-31T15:27:57;47.75;;;23.32;;
75209;SDS011;63796;53.136;14.882;2022-10-31T15:30:26;57.60;;;29.63;;
75209;SDS011;63796;53.136;14.882;2022-10-31T15:32:55;58.23;;;27.70;;
75209;SDS011;63796;53.136;14.882;2022-10-31T15:35:26;64.82;;;29.90;;
75209;SDS011;63796;53.136;14.882;2022-10-31T15:37:57;58.77;;;29.13;;
75209;SDS011;63796;53.136;14.882;2022-10-31T15:40:26;65.72;;;30.68;;
75209;SDS011;63796;53.136;14.882;2022-10-31T15:42:55;65.10;;;30.60;;
75209;SDS011;63796;53.136;14.882;2022-10-31T15:45:26;65.17;;;32.33;;
75209;SDS011;63796;53.136;14.882;2022-10-31T15:50:38;63.67;;;32.93;;
75209;SDS011;63796;53.136;14.882;2022-10-31T15:53:18;71.97;;;34.48;;
75209;SDS011;63796;53.136;14.882;2022-10-31T15:56:06;76.37;;;38.20;;
75209;SDS011;63796;53.136;14.882;2022-10-31T15:58:42;69.37;;;35.48;;
75209;SDS011;63796;53.136;14.882;2022-10-31T16:01:20;71.60;;;36.05;;
75209;SDS011;63796;53.136;14.882;2022-10-31T16:06:42;72.45;;;36.20;;
75209;SDS011;63796;53.136;14.882;2022-10-31T16:09:21;64.00;;;34.83;;
75209;SDS011;63796;53.136;14.882;2022-10-31T16:11:50;58.33;;;33.35;;
75209;SDS011;63796;53.136;14.882;2022-10-31T16:14:18;58.83;;;32.80;;
75209;SDS011;63796;53.136;14.882;2022-10-31T16:16:53;48.63;;;29.00;;
75209;SDS011;63796;53.136;14.882;2022-10-31T16:19:28;43.48;;;27.50;;
75209;SDS011;63796;53.136;14.882;2022-10-31T16:22:05;44.50;;;28.65;;
75209;SDS011;63796;53.136;14.882;2022-10-31T16:24:48;42.58;;;27.50;;
75209;SDS011;63796;53.136;14.882;2022-10-31T16:27:19;48.42;;;28.30;;
75209;SDS011;63796;53.136;14.882;2022-10-31T16:29:53;51.20;;;30.40;;
75209;SDS011;63796;53.136;14.882;2022-10-31T16:32:33;49.40;;;29.50;;
75209;SDS011;63796;53.136;14.882;2022-10-31T16:35:35;46.58;;;28.05;;
75209;SDS011;63796;53.136;14.882;2022-10-31T16:38:04;45.63;;;28.05;;
75209;SDS011;63796;53.136;14.882;2022-10-31T16:40:32;45.92;;;27.15;;
75209;SDS011;63796;53.136;14.882;2022-10-31T16:43:00;67.53;;;26.83;;
75209;SDS011;63796;53.136;14.882;2022-10-31T16:45:28;56.35;;;27.87;;
75209;SDS011;63796;53.136;14.882;2022-10-31T16:48:09;54.55;;;28.00;;
75209;SDS011;63796;53.136;14.882;2022-10-31T16:50:33;51.28;;;27.35;;
75209;SDS011;63796;53.136;14.882;2022-10-31T16:53:00;55.52;;;28.25;;
75209;SDS011;63796;53.136;14.882;2022-10-31T16:55:27;50.10;;;27.70;;
75209;SDS011;63796;53.136;14.882;2022-10-31T16:57:55;53.83;;;28.30;;
75209;SDS011;63796;53.136;14.882;2022-10-31T17:00:24;51.08;;;28.23;;
75209;SDS011;63796;53.136;14.882;2022-10-31T17:02:54;60.78;;;29.23;;
75209;SDS011;63796;53.136;14.882;2022-10-31T17:05:27;61.80;;;30.23;;
75209;SDS011;63796;53.136;14.882;2022-10-31T17:07:58;55.97;;;27.97;;
75209;SDS011;63796;53.136;14.882;2022-10-31T17:10:25;56.95;;;27.50;;
75209;SDS011;63796;53.136;14.882;2022-10-31T17:12:53;58.80;;;29.23;;
75209;SDS011;63796;53.136;14.882;2022-10-31T17:15:23;58.48;;;30.27;;
75209;SDS011;63796;53.136;14.882;2022-10-31T17:17:53;61.50;;;28.83;;
75209;SDS011;63796;53.136;14.882;2022-10-31T17:20:27;57.80;;;29.40;;
75209;SDS011;63796;53.136;14.882;2022-10-31T17:22:57;63.25;;;30.27;;
75209;SDS011;63796;53.136;14.882;2022-10-31T17:25:25;51.55;;;28.12;;
75209;SDS011;63796;53.136;14.882;2022-10-31T17:27:57;61.42;;;28.47;;
75209;SDS011;63796;53.136;14.882;2022-10-31T17:30:24;51.68;;;27.80;;
75209;SDS011;63796;53.136;14.882;2022-10-31T17:32:51;53.80;;;27.37;;
75209;SDS011;63796;53.136;14.882;2022-10-31T17:35:20;61.88;;;28.57;;
75209;SDS011;63796;53.136;14.882;2022-10-31T17:37:47;61.85;;;29.45;;
75209;SDS011;63796;53.136;14.882;2022-10-31T17:40:15;57.67;;;28.47;;
75209;SDS011;63796;53.136;14.882;2022-10-31T17:42:50;66.05;;;29.48;;
75209;SDS011;63796;53.136;14.882;2022-10-31T17:45:19;55.40;;;28.97;;
75209;SDS011;63796;53.136;14.882;2022-10-31T17:47:48;69.75;;;29.70;;
75209;SDS011;63796;53.136;14.882;2022-10-31T17:50:19;71.85;;;31.35;;
75209;SDS011;63796;53.136;14.882;2022-10-31T17:52:49;74.65;;;30.62;;
75209;SDS011;63796;53.136;14.882;2022-10-31T17:55:16;73.33;;;31.65;;
75209;SDS011;63796;53.136;14.882;2022-10-31T17:57:47;76.40;;;32.23;;
75209;SDS011;63796;53.136;14.882;2022-10-31T18:00:15;79.82;;;33.88;;
75209;SDS011;63796;53.136;14.882;2022-10-31T18:02:45;87.97;;;35.05;;
75209;SDS011;63796;53.136;14.882;2022-10-31T18:05:12;97.57;;;35.45;;
75209;SDS011;63796;53.136;14.882;2022-10-31T18:07:39;86.63;;;35.65;;
75209;SDS011;63796;53.136;14.882;2022-10-31T18:10:06;107.00;;;38.43;;
75209;SDS011;63796;53.136;14.882;2022-10-31T18:12:35;121.55;;;40.73;;
75209;SDS011;63796;53.136;14.882;2022-10-31T18:15:02;103.35;;;39.08;;
75209;SDS011;63796;53.136;14.882;2022-10-31T18:17:30;118.90;;;41.02;;
75209;SDS011;63796;53.136;14.882;2022-10-31T18:19:57;119.60;;;42.55;;
75209;SDS011;63796;53.136;14.882;2022-10-31T18:22:24;117.27;;;43.80;;
75209;SDS011;63796;53.136;14.882;2022-10-31T18:24:51;109.65;;;39.20;;
75209;SDS011;63796;53.136;14.882;2022-10-31T18:27:18;98.10;;;37.13;;